Keewatin, Minnesota
Current Conditions -  °F | °C
As of 12:29 PM on Sunday 21 Dec 2014 (Local Time) from KHIB Reporting Station
Haze Haze  
Wind Chill: 25°   Ceiling: 400
Heat Index: 32°   Visibility: 3mi
Dew Point: 28°   Wind: 8mph
Humidity: 85%   Direction: 160°SSE
Pressure: 29.76"   Gusts: NA
Location:  47.4°N, 93.07°W
Report Text: KHIB 211829Z AUTO 16007KT 3SM BR OVC004 00/M02 A2976 RMK AO2 T00001022
Loading
Personal Weather Stations






























Interactive Weather Map New forecast layout! Learn more

10-Day Weather Forecast

Advertisements
Track Severe Weather on mobile